createdAt,value
2023-05-16T00:00:07.660Z,15.63
2023-05-16T00:00:17.932Z,15.62
2023-05-16T00:00:28.417Z,15.63
2023-05-16T00:00:38.578Z,15.60
2023-05-16T00:00:48.884Z,15.60
2023-05-16T00:00:59.135Z,15.59
2023-05-16T00:01:09.396Z,15.60
2023-05-16T00:01:19.649Z,15.59
2023-05-16T00:01:29.929Z,15.59
2023-05-16T00:01:40.197Z,15.60
2023-05-16T00:01:50.507Z,15.59
2023-05-16T00:02:00.776Z,15.60
2023-05-16T00:02:11.216Z,15.60
2023-05-16T00:02:21.377Z,15.59
2023-05-16T00:02:31.739Z,15.59
2023-05-16T00:02:42.096Z,15.57
2023-05-16T00:02:52.251Z,15.55
2023-05-16T00:03:02.409Z,15.57
2023-05-16T00:03:12.766Z,15.54
2023-05-16T00:03:23.014Z,15.55
2023-05-16T00:03:33.397Z,15.55
2023-05-16T00:03:43.766Z,15.54
2023-05-16T00:03:54.077Z,15.54
2023-05-16T00:04:04.483Z,15.54
2023-05-16T00:04:14.798Z,15.52
2023-05-16T00:04:25.079Z,15.54
2023-05-16T00:04:35.475Z,15.52
2023-05-16T00:04:45.652Z,15.54
2023-05-16T00:04:55.919Z,15.52
2023-05-16T00:05:06.185Z,15.54
2023-05-16T00:05:16.466Z,15.54
2023-05-16T00:05:26.702Z,15.52
2023-05-16T00:05:36.966Z,15.52
2023-05-16T00:05:47.230Z,15.52
2023-05-16T00:05:57.491Z,15.51
2023-05-16T00:06:07.745Z,15.50
2023-05-16T00:06:18.001Z,15.52
2023-05-16T00:06:28.264Z,15.50
2023-05-16T00:06:38.526Z,15.51
2023-05-16T00:06:48.792Z,15.50
2023-05-16T00:06:59.047Z,15.51
2023-05-16T00:07:09.304Z,15.50
2023-05-16T00:07:19.658Z,15.50
2023-05-16T00:07:29.868Z,15.50
2023-05-16T00:07:40.129Z,15.48
2023-05-16T00:07:50.388Z,15.50
2023-05-16T00:08:00.663Z,15.48
2023-05-16T00:08:10.914Z,15.47
2023-05-16T00:08:21.171Z,15.48
2023-05-16T00:08:31.432Z,15.47
2023-05-16T00:08:41.692Z,15.48
2023-05-16T00:08:51.955Z,15.47
2023-05-16T00:09:02.261Z,15.48
2023-05-16T00:09:12.505Z,15.47
2023-05-16T00:09:23.035Z,15.47
2023-05-16T00:09:33.077Z,15.45
2023-05-16T00:09:43.340Z,15.45
2023-05-16T00:09:53.605Z,15.45
2023-05-16T00:10:03.863Z,15.44
2023-05-16T00:10:14.126Z,15.45
2023-05-16T00:10:24.656Z,15.45
2023-05-16T00:10:34.653Z,15.45
2023-05-16T00:10:44.920Z,15.43
2023-05-16T00:10:55.156Z,15.44
2023-05-16T00:11:05.419Z,15.43
2023-05-16T00:11:15.674Z,15.41
2023-05-16T00:11:25.939Z,15.44
2023-05-16T00:11:36.195Z,15.44
2023-05-16T00:11:46.463Z,15.43
2023-05-16T00:11:56.718Z,15.41
2023-05-16T00:12:06.978Z,15.43
2023-05-16T00:12:17.238Z,15.41
2023-05-16T00:12:27.500Z,15.41
2023-05-16T00:12:37.764Z,15.39
2023-05-16T00:12:48.025Z,15.39
2023-05-16T00:12:58.287Z,15.37
2023-05-16T00:13:08.550Z,15.39
2023-05-16T00:13:18.804Z,15.37
2023-05-16T00:13:29.067Z,15.37
2023-05-16T00:13:39.336Z,15.39
2023-05-16T00:13:49.626Z,15.39
2023-05-16T00:13:59.882Z,15.36
2023-05-16T00:14:10.159Z,15.37
2023-05-16T00:14:20.417Z,15.36
2023-05-16T00:14:30.684Z,15.37
2023-05-16T00:14:40.937Z,15.36
2023-05-16T00:14:51.197Z,15.36
2023-05-16T00:15:01.454Z,15.37
2023-05-16T00:15:11.716Z,15.36
2023-05-16T00:15:21.981Z,15.36
2023-05-16T00:15:32.251Z,15.33
2023-05-16T00:15:42.504Z,15.36
2023-05-16T00:15:52.763Z,15.35
2023-05-16T00:16:03.021Z,15.36
2023-05-16T00:16:13.325Z,15.35
2023-05-16T00:16:23.563Z,15.33
2023-05-16T00:16:33.840Z,15.36
2023-05-16T00:16:44.117Z,15.32
2023-05-16T00:16:54.412Z,15.35
2023-05-16T00:17:04.987Z,15.35
2023-05-16T00:17:15.139Z,15.35
2023-05-16T00:17:25.456Z,15.32
2023-05-16T00:17:35.779Z,15.32
2023-05-16T00:17:46.027Z,15.32
2023-05-16T00:17:56.320Z,15.33
2023-05-16T00:18:06.691Z,15.33
2023-05-16T00:18:16.985Z,15.33
2023-05-16T00:18:27.242Z,15.32
2023-05-16T00:18:37.578Z,15.32
2023-05-16T00:18:47.893Z,15.32
2023-05-16T00:18:58.176Z,15.32
2023-05-16T00:19:08.880Z,15.30
2023-05-16T00:19:18.878Z,15.30
2023-05-16T00:19:28.973Z,15.32
2023-05-16T00:19:39.254Z,15.30
2023-05-16T00:19:49.492Z,15.30
2023-05-16T00:19:59.755Z,15.29
2023-05-16T00:20:10.011Z,15.29
2023-05-16T00:20:20.295Z,15.29
2023-05-16T00:20:30.671Z,15.27
2023-05-16T00:20:40.917Z,15.27
2023-05-16T00:20:51.177Z,15.27
2023-05-16T00:21:01.445Z,15.29
2023-05-16T00:21:11.713Z,15.26
2023-05-16T00:21:23.743Z,15.26
2023-05-16T00:21:32.384Z,15.25
2023-05-16T00:21:42.601Z,15.27
2023-05-16T00:21:52.862Z,15.26
2023-05-16T00:22:03.124Z,15.26
2023-05-16T00:22:13.382Z,15.27
2023-05-16T00:22:23.655Z,15.26
2023-05-16T00:22:33.902Z,15.23
2023-05-16T00:22:44.162Z,15.23
2023-05-16T00:22:54.424Z,15.25
2023-05-16T00:23:04.699Z,15.25
2023-05-16T00:23:14.955Z,15.23
2023-05-16T00:23:25.233Z,15.25
2023-05-16T00:23:35.501Z,15.25
2023-05-16T00:23:45.765Z,15.23
2023-05-16T00:23:56.038Z,15.23
2023-05-16T00:24:06.289Z,15.23
2023-05-16T00:24:16.543Z,15.19
2023-05-16T00:24:26.804Z,15.19
2023-05-16T00:24:37.090Z,15.22
2023-05-16T00:24:47.333Z,15.19
2023-05-16T00:24:57.592Z,15.19
2023-05-16T00:25:07.858Z,15.19
2023-05-16T00:25:18.112Z,15.19
2023-05-16T00:25:28.390Z,15.18
2023-05-16T00:25:38.636Z,15.18
2023-05-16T00:25:48.896Z,15.17
2023-05-16T00:25:59.158Z,15.18
2023-05-16T00:26:09.439Z,15.17
2023-05-16T00:26:19.677Z,15.17
2023-05-16T00:26:29.936Z,15.18
2023-05-16T00:26:40.193Z,15.17
2023-05-16T00:26:50.463Z,15.17
2023-05-16T00:27:00.719Z,15.14
2023-05-16T00:27:10.983Z,15.17
2023-05-16T00:27:21.239Z,15.15
2023-05-16T00:27:31.501Z,15.15
2023-05-16T00:27:41.773Z,15.14
2023-05-16T00:27:52.041Z,15.15
2023-05-16T00:28:02.307Z,15.15
2023-05-16T00:28:12.587Z,15.14
2023-05-16T00:28:22.844Z,15.12
2023-05-16T00:28:33.104Z,15.12
2023-05-16T00:28:43.360Z,15.14
2023-05-16T00:28:53.623Z,15.14
2023-05-16T00:29:03.882Z,15.12
2023-05-16T00:29:14.160Z,15.14
2023-05-16T00:29:24.440Z,15.12
2023-05-16T00:29:34.693Z,15.14
2023-05-16T00:29:44.959Z,15.12
2023-05-16T00:29:55.212Z,15.11
2023-05-16T00:30:05.471Z,15.11
2023-05-16T00:30:15.740Z,15.11
2023-05-16T00:30:26.178Z,15.12
2023-05-16T00:30:36.324Z,15.11
2023-05-16T00:30:46.580Z,15.11
2023-05-16T00:30:56.836Z,15.10
2023-05-16T00:31:07.104Z,15.08
2023-05-16T00:31:17.404Z,15.10
2023-05-16T00:31:27.667Z,15.10
2023-05-16T00:31:37.965Z,15.10
2023-05-16T00:31:48.230Z,15.10
2023-05-16T00:31:58.515Z,15.07
2023-05-16T00:32:09.034Z,15.08
2023-05-16T00:32:19.421Z,15.08
2023-05-16T00:32:29.559Z,15.08
2023-05-16T00:32:39.857Z,15.08
2023-05-16T00:32:50.088Z,15.08
2023-05-16T00:33:00.415Z,15.10
2023-05-16T00:33:10.673Z,15.07
2023-05-16T00:33:20.936Z,15.05
2023-05-16T00:33:31.191Z,15.05
2023-05-16T00:33:41.451Z,15.05
2023-05-16T00:33:51.715Z,15.05
2023-05-16T00:34:02.025Z,15.07
2023-05-16T00:34:12.288Z,15.05
2023-05-16T00:34:22.599Z,15.05
2023-05-16T00:34:32.964Z,15.02
2023-05-16T00:34:43.303Z,15.02
2023-05-16T00:34:53.535Z,15.04
2023-05-16T00:35:03.794Z,15.05
2023-05-16T00:35:14.053Z,15.04
2023-05-16T00:35:24.349Z,15.02
2023-05-16T00:35:34.576Z,15.04
2023-05-16T00:35:44.841Z,15.02
2023-05-16T00:35:55.096Z,15.02
2023-05-16T00:36:05.357Z,15.04
2023-05-16T00:36:15.623Z,15.02
2023-05-16T00:36:25.898Z,15.00
2023-05-16T00:36:36.157Z,15.00
2023-05-16T00:36:46.438Z,15.02
2023-05-16T00:36:56.698Z,15.02
2023-05-16T00:37:06.959Z,15.02
2023-05-16T00:37:17.219Z,15.00
2023-05-16T00:37:27.483Z,14.99
2023-05-16T00:37:37.741Z,14.99
2023-05-16T00:37:48.004Z,15.00
2023-05-16T00:37:58.310Z,14.99
2023-05-16T00:38:08.527Z,15.00
2023-05-16T00:38:18.788Z,14.97
2023-05-16T00:38:29.054Z,14.99
2023-05-16T00:38:39.313Z,14.97
2023-05-16T00:38:49.568Z,14.99
2023-05-16T00:38:59.826Z,15.00
2023-05-16T00:39:10.092Z,14.97
2023-05-16T00:39:20.518Z,14.96
2023-05-16T00:39:30.771Z,14.97
2023-05-16T00:39:41.029Z,14.99
2023-05-16T00:39:51.295Z,14.97
2023-05-16T00:40:01.552Z,14.97
2023-05-16T00:40:11.812Z,14.97
2023-05-16T00:40:22.078Z,14.97
2023-05-16T00:40:32.338Z,14.94
2023-05-16T00:40:42.594Z,14.97
2023-05-16T00:40:52.854Z,14.96
2023-05-16T00:41:03.138Z,14.96
2023-05-16T00:41:13.402Z,14.96
2023-05-16T00:41:23.672Z,14.96
2023-05-16T00:41:33.918Z,14.96
2023-05-16T00:41:44.177Z,14.96
2023-05-16T00:41:54.442Z,14.93
2023-05-16T00:42:04.701Z,14.94
2023-05-16T00:42:14.971Z,14.93
2023-05-16T00:42:25.235Z,14.92
2023-05-16T00:42:35.499Z,14.94
2023-05-16T00:42:45.753Z,14.93
2023-05-16T00:42:56.013Z,14.92
2023-05-16T00:43:06.285Z,14.90
2023-05-16T00:43:16.547Z,14.93
2023-05-16T00:43:26.799Z,14.92
2023-05-16T00:43:37.056Z,14.92
2023-05-16T00:43:47.324Z,14.92
2023-05-16T00:43:57.583Z,14.92
2023-05-16T00:44:07.845Z,14.92
2023-05-16T00:44:18.105Z,14.90
2023-05-16T00:44:28.365Z,14.92
2023-05-16T00:44:38.623Z,14.90
2023-05-16T00:44:48.899Z,14.90
2023-05-16T00:44:59.161Z,14.89
2023-05-16T00:45:09.424Z,14.90
2023-05-16T00:45:19.675Z,14.90
2023-05-16T00:45:29.933Z,14.87
2023-05-16T00:45:40.197Z,14.90
2023-05-16T00:45:50.490Z,14.90
2023-05-16T00:46:00.776Z,14.89
2023-05-16T00:46:11.091Z,14.89
2023-05-16T00:46:21.376Z,14.89
2023-05-16T00:46:31.695Z,14.89
2023-05-16T00:46:41.996Z,14.89
2023-05-16T00:46:52.254Z,14.87
2023-05-16T00:47:02.518Z,14.89
2023-05-16T00:47:12.787Z,14.87
2023-05-16T00:47:23.072Z,14.87
2023-05-16T00:47:33.357Z,14.89
2023-05-16T00:47:43.652Z,14.87
2023-05-16T00:47:53.944Z,14.87
2023-05-16T00:48:04.198Z,14.87
2023-05-16T00:48:14.509Z,14.86
2023-05-16T00:48:24.742Z,14.86
2023-05-16T00:48:35.001Z,14.87
2023-05-16T00:48:45.268Z,14.86
2023-05-16T00:48:55.534Z,14.86
2023-05-16T00:49:05.783Z,14.86
2023-05-16T00:49:16.044Z,14.86
2023-05-16T00:49:26.309Z,14.87
2023-05-16T00:49:36.568Z,14.82
2023-05-16T00:49:46.828Z,14.85
2023-05-16T00:49:57.089Z,14.82
2023-05-16T00:50:07.357Z,14.85
2023-05-16T00:50:17.608Z,14.85
2023-05-16T00:50:28.159Z,14.82
2023-05-16T00:50:38.288Z,14.85
2023-05-16T00:50:48.546Z,14.85
2023-05-16T00:50:58.809Z,14.82
2023-05-16T00:51:09.086Z,14.81
2023-05-16T00:51:19.352Z,14.82
2023-05-16T00:51:29.620Z,14.82
2023-05-16T00:51:39.889Z,14.82
2023-05-16T00:51:50.172Z,14.82
2023-05-16T00:52:00.424Z,14.79
2023-05-16T00:52:10.690Z,14.79
2023-05-16T00:52:20.951Z,14.78
2023-05-16T00:52:31.205Z,14.79
2023-05-16T00:52:41.464Z,14.78
2023-05-16T00:52:51.736Z,14.79
2023-05-16T00:53:01.989Z,14.77
2023-05-16T00:53:12.247Z,14.78
2023-05-16T00:53:22.511Z,14.77
2023-05-16T00:53:32.769Z,14.78
2023-05-16T00:53:43.030Z,14.77
2023-05-16T00:53:53.292Z,14.77
2023-05-16T00:54:03.557Z,14.74
2023-05-16T00:54:13.815Z,14.78
2023-05-16T00:54:24.074Z,14.74
2023-05-16T00:54:34.331Z,14.77
2023-05-16T00:54:44.590Z,14.77
2023-05-16T00:54:54.862Z,14.74
2023-05-16T00:55:05.136Z,14.77
2023-05-16T00:55:15.402Z,14.73
2023-05-16T00:55:25.636Z,14.74
2023-05-16T00:55:35.893Z,14.73
2023-05-16T00:55:46.155Z,14.77
2023-05-16T00:55:56.428Z,14.74
2023-05-16T00:56:06.719Z,14.73
2023-05-16T00:56:16.966Z,14.74
2023-05-16T00:56:27.242Z,14.73
2023-05-16T00:56:37.498Z,14.73
2023-05-16T00:56:47.762Z,14.71
2023-05-16T00:56:58.017Z,14.71
2023-05-16T00:57:08.277Z,14.71
2023-05-16T00:57:18.547Z,14.70
2023-05-16T00:57:28.798Z,14.71
2023-05-16T00:57:39.063Z,14.71
2023-05-16T00:57:49.317Z,14.70
2023-05-16T00:57:59.595Z,14.70
2023-05-16T00:58:09.844Z,14.70
2023-05-16T00:58:20.123Z,14.70
2023-05-16T00:58:30.366Z,14.70
2023-05-16T00:58:40.629Z,14.71
2023-05-16T00:58:50.887Z,14.68
2023-05-16T00:59:01.153Z,14.70
2023-05-16T00:59:11.418Z,14.70
2023-05-16T00:59:21.672Z,14.68
2023-05-16T00:59:31.931Z,14.68
2023-05-16T00:59:42.193Z,14.68
2023-05-16T00:59:52.455Z,14.67
2023-05-16T01:00:02.731Z,14.67
2023-05-16T01:00:12.972Z,14.67
2023-05-16T01:00:23.231Z,14.70
2023-05-16T01:00:33.535Z,14.67
2023-05-16T01:00:43.782Z,14.67
2023-05-16T01:00:54.058Z,14.66
2023-05-16T01:01:04.382Z,14.67
2023-05-16T01:01:14.732Z,14.68
2023-05-16T01:01:25.005Z,14.67
2023-05-16T01:01:35.250Z,14.66
2023-05-16T01:01:45.531Z,14.66
2023-05-16T01:01:55.800Z,14.66
2023-05-16T01:02:06.052Z,14.63
2023-05-16T01:02:16.388Z,14.67
2023-05-16T01:02:26.717Z,14.66
2023-05-16T01:02:37.020Z,14.63
2023-05-16T01:02:47.351Z,14.66
2023-05-16T01:02:57.717Z,14.62
2023-05-16T01:03:08.127Z,14.66
2023-05-16T01:03:18.536Z,14.62
2023-05-16T01:03:28.977Z,14.66
2023-05-16T01:03:39.415Z,14.62
2023-05-16T01:03:49.661Z,14.62
2023-05-16T01:04:00.032Z,14.62
2023-05-16T01:04:10.242Z,14.59
2023-05-16T01:04:20.541Z,14.61
2023-05-16T01:04:30.794Z,14.59
2023-05-16T01:04:41.050Z,14.61
2023-05-16T01:04:51.338Z,14.62
2023-05-16T01:05:01.584Z,14.61
2023-05-16T01:05:11.840Z,14.61
2023-05-16T01:05:22.117Z,14.59
2023-05-16T01:05:32.414Z,14.59
2023-05-16T01:05:42.683Z,14.58
2023-05-16T01:05:52.926Z,14.59
2023-05-16T01:06:03.184Z,14.61
2023-05-16T01:06:13.442Z,14.58
2023-05-16T01:06:23.702Z,14.59
2023-05-16T01:06:33.963Z,14.58
2023-05-16T01:06:44.225Z,14.59
2023-05-16T01:06:54.487Z,14.58
2023-05-16T01:07:04.742Z,14.58
2023-05-16T01:07:15.010Z,14.58
2023-05-16T01:07:25.284Z,14.56
2023-05-16T01:07:35.526Z,14.56
2023-05-16T01:07:45.785Z,14.56
2023-05-16T01:07:56.047Z,14.58
2023-05-16T01:08:06.321Z,14.56
2023-05-16T01:08:16.562Z,14.56
2023-05-16T01:08:26.839Z,14.56
2023-05-16T01:08:37.129Z,14.55
2023-05-16T01:08:47.361Z,14.58
2023-05-16T01:08:57.614Z,14.55
2023-05-16T01:09:07.891Z,14.53
2023-05-16T01:09:18.135Z,14.55
2023-05-16T01:09:28.408Z,14.55
2023-05-16T01:09:38.656Z,14.53
2023-05-16T01:09:48.926Z,14.52
2023-05-16T01:09:59.243Z,14.53
2023-05-16T01:10:09.502Z,14.53
2023-05-16T01:10:19.779Z,14.55
2023-05-16T01:10:30.045Z,14.52
2023-05-16T01:10:40.304Z,14.51
2023-05-16T01:10:50.568Z,14.52
2023-05-16T01:11:00.817Z,14.53
2023-05-16T01:11:11.076Z,14.51
2023-05-16T01:11:21.342Z,14.52
2023-05-16T01:11:31.615Z,14.53
2023-05-16T01:11:41.862Z,14.52
2023-05-16T01:11:52.132Z,14.52
2023-05-16T01:12:02.378Z,14.52
2023-05-16T01:12:12.646Z,14.51
2023-05-16T01:12:22.910Z,14.51
2023-05-16T01:12:33.168Z,14.51
2023-05-16T01:12:43.447Z,14.49
2023-05-16T01:12:53.687Z,14.51
2023-05-16T01:13:03.967Z,14.51
2023-05-16T01:13:14.204Z,14.48
2023-05-16T01:13:24.476Z,14.48
2023-05-16T01:13:34.734Z,14.49
2023-05-16T01:13:44.983Z,14.48
2023-05-16T01:13:55.266Z,14.51
2023-05-16T01:14:05.532Z,14.48
2023-05-16T01:14:15.789Z,14.48
2023-05-16T01:14:26.053Z,14.48
2023-05-16T01:14:36.307Z,14.45
2023-05-16T01:14:46.583Z,14.48
2023-05-16T01:14:56.844Z,14.48
2023-05-16T01:15:07.124Z,14.48
2023-05-16T01:15:17.389Z,14.45
2023-05-16T01:15:27.887Z,14.48
2023-05-16T01:15:38.096Z,14.45
2023-05-16T01:15:48.350Z,14.45
2023-05-16T01:15:58.665Z,14.48
2023-05-16T01:16:08.942Z,14.45
2023-05-16T01:16:19.250Z,14.45
2023-05-16T01:16:29.538Z,14.45
2023-05-16T01:16:40.017Z,14.44
2023-05-16T01:16:50.120Z,14.44
2023-05-16T01:17:00.359Z,14.41
2023-05-16T01:17:10.617Z,14.43
2023-05-16T01:17:20.878Z,14.43
2023-05-16T01:17:31.185Z,14.43
2023-05-16T01:17:41.423Z,14.43
2023-05-16T01:17:51.740Z,14.43
2023-05-16T01:18:02.115Z,14.41
2023-05-16T01:18:12.452Z,14.41
2023-05-16T01:18:22.696Z,14.43
2023-05-16T01:18:32.981Z,14.41
2023-05-16T01:18:43.247Z,14.41
2023-05-16T01:18:53.604Z,14.41
2023-05-16T01:19:03.927Z,14.41
2023-05-16T01:19:14.180Z,14.41
2023-05-16T01:19:24.594Z,14.40
2023-05-16T01:19:34.659Z,14.41
2023-05-16T01:19:44.940Z,14.41
2023-05-16T01:19:55.201Z,14.41
2023-05-16T01:20:05.469Z,14.41
2023-05-16T01:20:15.791Z,14.40
2023-05-16T01:20:26.029Z,14.40
2023-05-16T01:20:36.306Z,14.40
2023-05-16T01:20:46.548Z,14.40
2023-05-16T01:20:56.811Z,14.40
2023-05-16T01:21:07.060Z,14.38
2023-05-16T01:21:17.317Z,14.40
2023-05-16T01:21:27.581Z,14.38
2023-05-16T01:21:37.841Z,14.37
2023-05-16T01:21:51.083Z,14.40
2023-05-16T01:21:58.317Z,14.38
2023-05-16T01:22:08.587Z,14.37
2023-05-16T01:22:18.836Z,14.37
2023-05-16T01:22:29.104Z,14.37
2023-05-16T01:22:39.356Z,14.36
2023-05-16T01:23:00.037Z,14.34
2023-05-16T01:23:10.297Z,14.34
2023-05-16T01:23:20.559Z,14.36
2023-05-16T01:23:30.818Z,14.36
2023-05-16T01:23:41.080Z,14.34
2023-05-16T01:23:51.341Z,14.33
2023-05-16T01:24:01.619Z,14.33
2023-05-16T01:24:11.890Z,14.34
2023-05-16T01:24:22.160Z,14.33
2023-05-16T01:24:32.434Z,14.34
2023-05-16T01:24:42.695Z,14.34
2023-05-16T01:24:52.953Z,14.33
2023-05-16T01:25:03.230Z,14.34
2023-05-16T01:25:13.481Z,14.31
2023-05-16T01:25:23.764Z,14.34
2023-05-16T01:25:34.003Z,14.33
2023-05-16T01:25:44.266Z,14.33
2023-05-16T01:25:54.525Z,14.33
2023-05-16T01:26:04.788Z,14.31
2023-05-16T01:26:15.055Z,14.31
2023-05-16T01:26:25.313Z,14.31
2023-05-16T01:26:35.567Z,14.31
2023-05-16T01:26:45.843Z,14.30
2023-05-16T01:26:56.102Z,14.33
2023-05-16T01:27:06.370Z,14.30
2023-05-16T01:27:16.624Z,14.28
2023-05-16T01:27:26.892Z,14.28
2023-05-16T01:27:37.174Z,14.30
2023-05-16T01:27:47.404Z,14.31
2023-05-16T01:27:57.668Z,14.28
2023-05-16T01:28:07.923Z,14.28
2023-05-16T01:28:18.191Z,14.28
2023-05-16T01:28:28.454Z,14.26
2023-05-16T01:28:38.709Z,14.30
2023-05-16T01:28:48.989Z,14.26
2023-05-16T01:28:59.272Z,14.26
2023-05-16T01:29:09.547Z,14.25
2023-05-16T01:29:19.823Z,14.28
2023-05-16T01:29:30.113Z,14.28
2023-05-16T01:29:40.356Z,14.28
2023-05-16T01:29:50.603Z,14.26
2023-05-16T01:30:00.869Z,14.25
2023-05-16T01:30:11.125Z,14.26
2023-05-16T01:30:21.387Z,14.28
2023-05-16T01:30:31.646Z,14.26
2023-05-16T01:30:41.911Z,14.26
2023-05-16T01:30:52.171Z,14.25
2023-05-16T01:31:02.500Z,14.26
2023-05-16T01:31:12.810Z,14.25
2023-05-16T01:31:23.151Z,14.26
2023-05-16T01:31:33.429Z,14.25
2023-05-16T01:31:43.696Z,14.25
2023-05-16T01:31:53.963Z,14.25
2023-05-16T01:32:04.270Z,14.25
2023-05-16T01:32:14.526Z,14.23
2023-05-16T01:32:24.815Z,14.23
2023-05-16T01:32:35.119Z,14.23
2023-05-16T01:32:45.430Z,14.25
2023-05-16T01:32:55.717Z,14.23
2023-05-16T01:33:06.083Z,14.25
2023-05-16T01:33:16.211Z,14.23
2023-05-16T01:33:26.491Z,14.22
2023-05-16T01:33:36.744Z,14.25
2023-05-16T01:33:47.019Z,14.20
2023-05-16T01:33:57.292Z,14.23
2023-05-16T01:34:07.551Z,14.22
2023-05-16T01:34:17.819Z,14.20
2023-05-16T01:34:28.100Z,14.23
2023-05-16T01:34:38.354Z,14.22
2023-05-16T01:34:48.623Z,14.22
2023-05-16T01:34:58.873Z,14.22
2023-05-16T01:35:09.132Z,14.20
2023-05-16T01:35:19.398Z,14.20
2023-05-16T01:35:29.663Z,14.22
2023-05-16T01:35:39.943Z,14.19
2023-05-16T01:35:50.178Z,14.20
2023-05-16T01:36:00.439Z,14.20
2023-05-16T01:36:10.699Z,14.19
2023-05-16T01:36:20.954Z,14.20
2023-05-16T01:36:31.228Z,14.20
2023-05-16T01:36:41.492Z,14.19
2023-05-16T01:36:51.762Z,14.19
2023-05-16T01:37:02.018Z,14.19
2023-05-16T01:37:12.276Z,14.18
2023-05-16T01:37:22.537Z,14.19
2023-05-16T01:37:32.790Z,14.18
2023-05-16T01:37:43.053Z,14.18
2023-05-16T01:37:53.319Z,14.19
2023-05-16T01:38:03.598Z,14.19
2023-05-16T01:38:13.860Z,14.18
2023-05-16T01:38:24.130Z,14.18
2023-05-16T01:38:34.396Z,14.18
2023-05-16T01:38:44.667Z,14.16
2023-05-16T01:38:54.921Z,14.18
2023-05-16T01:39:05.181Z,14.19
2023-05-16T01:39:15.449Z,14.18
2023-05-16T01:39:25.702Z,14.18
2023-05-16T01:39:35.968Z,14.19
2023-05-16T01:39:46.224Z,14.18
2023-05-16T01:39:56.482Z,14.16
2023-05-16T01:40:06.742Z,14.16
2023-05-16T01:40:17.003Z,14.15
2023-05-16T01:40:27.267Z,14.16
2023-05-16T01:40:37.523Z,14.15
2023-05-16T01:40:47.782Z,14.15
2023-05-16T01:40:58.042Z,14.13
2023-05-16T01:41:08.311Z,14.15
2023-05-16T01:41:18.568Z,14.15
2023-05-16T01:41:28.826Z,14.15
2023-05-16T01:41:39.095Z,14.13
2023-05-16T01:41:49.362Z,14.15
2023-05-16T01:41:59.611Z,14.13
2023-05-16T01:42:09.875Z,14.15
2023-05-16T01:42:20.133Z,14.15
2023-05-16T01:42:30.406Z,14.15
2023-05-16T01:42:40.676Z,14.13
2023-05-16T01:42:50.937Z,14.13
2023-05-16T01:43:01.209Z,14.12
2023-05-16T01:43:11.484Z,14.12
2023-05-16T01:43:21.742Z,14.11
2023-05-16T01:43:32.004Z,14.11
2023-05-16T01:43:42.262Z,14.11
2023-05-16T01:43:52.534Z,14.11
2023-05-16T01:44:02.786Z,14.08
2023-05-16T01:44:13.048Z,14.11
2023-05-16T01:44:23.308Z,14.11
2023-05-16T01:44:33.568Z,14.08
2023-05-16T01:44:43.827Z,14.08
2023-05-16T01:44:54.101Z,14.08
2023-05-16T01:45:04.344Z,14.08
2023-05-16T01:45:14.605Z,14.11
2023-05-16T01:45:25.279Z,14.08
2023-05-16T01:45:35.155Z,14.05
2023-05-16T01:45:45.413Z,14.07
2023-05-16T01:45:55.675Z,14.05
2023-05-16T01:46:05.938Z,14.05
2023-05-16T01:46:16.262Z,14.05
2023-05-16T01:46:26.521Z,14.05
2023-05-16T01:46:36.792Z,14.07
2023-05-16T01:46:47.098Z,14.05
2023-05-16T01:46:57.400Z,14.05
2023-05-16T01:47:07.765Z,14.04
2023-05-16T01:47:17.921Z,14.04
2023-05-16T01:47:28.227Z,14.04
2023-05-16T01:47:38.536Z,14.05
2023-05-16T01:47:48.879Z,14.03
2023-05-16T01:47:59.202Z,14.05
2023-05-16T01:48:09.586Z,14.01
2023-05-16T01:48:19.845Z,14.01
2023-05-16T01:48:30.107Z,14.03
2023-05-16T01:48:40.380Z,14.03
2023-05-16T01:48:50.626Z,14.01
2023-05-16T01:49:00.883Z,14.01
2023-05-16T01:49:11.152Z,14.00
2023-05-16T01:49:21.412Z,14.00
2023-05-16T01:49:31.675Z,14.00
2023-05-16T01:49:41.938Z,14.00
2023-05-16T01:49:52.193Z,14.00
2023-05-16T01:50:02.453Z,14.01
2023-05-16T01:50:12.715Z,14.00
2023-05-16T01:50:22.975Z,13.98
2023-05-16T01:50:33.237Z,14.00
2023-05-16T01:50:43.521Z,13.97
2023-05-16T01:50:53.757Z,13.98
2023-05-16T01:51:04.024Z,14.00
2023-05-16T01:51:14.277Z,13.97
2023-05-16T01:51:24.552Z,13.95
2023-05-16T01:51:34.794Z,13.95
2023-05-16T01:51:45.057Z,13.97
2023-05-16T01:51:55.342Z,13.97
2023-05-16T01:52:05.591Z,13.97
2023-05-16T01:52:15.869Z,13.95
2023-05-16T01:52:26.141Z,13.94
2023-05-16T01:52:36.396Z,13.95
2023-05-16T01:52:46.657Z,13.97
2023-05-16T01:52:56.916Z,13.94
2023-05-16T01:53:07.179Z,13.93
2023-05-16T01:53:17.436Z,13.94
2023-05-16T01:53:27.699Z,13.94
2023-05-16T01:53:37.961Z,13.93
2023-05-16T01:53:48.221Z,13.94
2023-05-16T01:53:58.490Z,13.93
2023-05-16T01:54:08.766Z,13.93
2023-05-16T01:54:19.013Z,13.93
2023-05-16T01:54:29.275Z,13.93
2023-05-16T01:54:39.534Z,13.91
2023-05-16T01:54:49.792Z,13.93
2023-05-16T01:55:00.095Z,13.93
2023-05-16T01:55:10.363Z,13.89
2023-05-16T01:55:20.639Z,13.89
2023-05-16T01:55:30.883Z,13.91
2023-05-16T01:55:41.146Z,13.93
2023-05-16T01:55:51.426Z,13.87
2023-05-16T01:56:01.671Z,13.89
2023-05-16T01:56:11.932Z,13.89
2023-05-16T01:56:22.186Z,13.86
2023-05-16T01:56:32.462Z,13.86
2023-05-16T01:56:42.717Z,13.91
2023-05-16T01:56:53.019Z,13.86
2023-05-16T01:57:03.270Z,13.89
2023-05-16T01:57:13.534Z,13.87
2023-05-16T01:57:23.788Z,13.86
2023-05-16T01:57:34.050Z,13.89
2023-05-16T01:57:44.307Z,13.87
2023-05-16T01:57:54.568Z,13.87
2023-05-16T01:58:04.823Z,13.86
2023-05-16T01:58:15.087Z,13.86
2023-05-16T01:58:25.467Z,13.85
2023-05-16T01:58:35.734Z,13.86
2023-05-16T01:58:45.992Z,13.87
2023-05-16T01:58:56.262Z,13.83
2023-05-16T01:59:06.509Z,13.86
2023-05-16T01:59:16.771Z,13.86
2023-05-16T01:59:27.035Z,13.86
2023-05-16T01:59:37.317Z,13.83
2023-05-16T01:59:47.573Z,13.85
2023-05-16T01:59:57.837Z,13.85
2023-05-16T02:00:08.100Z,13.83
2023-05-16T02:00:18.393Z,13.83
2023-05-16T02:00:28.658Z,13.82
2023-05-16T02:00:38.940Z,13.83
2023-05-16T02:00:49.262Z,13.85
2023-05-16T02:00:59.624Z,13.83
2023-05-16T02:01:09.947Z,13.83
2023-05-16T02:01:20.237Z,13.83
2023-05-16T02:01:30.585Z,13.82
2023-05-16T02:01:40.892Z,13.80
2023-05-16T02:01:51.122Z,13.82
2023-05-16T02:02:01.394Z,13.79
2023-05-16T02:02:11.670Z,13.80
2023-05-16T02:02:21.972Z,13.80
2023-05-16T02:02:32.346Z,13.79
2023-05-16T02:02:42.647Z,13.79
2023-05-16T02:02:52.924Z,13.80
2023-05-16T02:03:03.242Z,13.79
2023-05-16T02:03:13.577Z,13.78
2023-05-16T02:03:23.872Z,13.78
2023-05-16T02:03:34.133Z,13.78
2023-05-16T02:03:44.471Z,13.79
2023-05-16T02:03:54.915Z,13.76
2023-05-16T02:04:05.193Z,13.78
2023-05-16T02:04:15.586Z,13.78
2023-05-16T02:04:25.771Z,13.78
2023-05-16T02:04:36.026Z,13.78
2023-05-16T02:04:46.291Z,13.78
2023-05-16T02:04:56.557Z,13.75
2023-05-16T02:05:06.828Z,13.76
2023-05-16T02:05:17.082Z,13.76
2023-05-16T02:05:27.774Z,13.75
2023-05-16T02:05:37.614Z,13.73
2023-05-16T02:05:47.901Z,13.73
2023-05-16T02:05:58.144Z,13.73
2023-05-16T02:06:08.421Z,13.75
2023-05-16T02:06:18.678Z,13.75
2023-05-16T02:06:28.941Z,13.71
2023-05-16T02:06:39.209Z,13.71
2023-05-16T02:06:49.455Z,13.73
2023-05-16T02:06:59.719Z,13.73
2023-05-16T02:07:09.988Z,13.73
2023-05-16T02:07:20.242Z,13.71
2023-05-16T02:07:30.502Z,13.71
2023-05-16T02:07:40.762Z,13.71
2023-05-16T02:07:51.023Z,13.70
2023-05-16T02:08:01.281Z,13.70
2023-05-16T02:08:11.544Z,13.71
2023-05-16T02:08:21.804Z,13.71
2023-05-16T02:08:32.063Z,13.71
2023-05-16T02:08:42.326Z,13.71
2023-05-16T02:08:52.588Z,13.67
2023-05-16T02:09:02.843Z,13.70
2023-05-16T02:09:13.107Z,13.68
2023-05-16T02:09:23.368Z,13.68
2023-05-16T02:09:33.632Z,13.70
2023-05-16T02:09:43.886Z,13.65
2023-05-16T02:09:54.155Z,13.67
2023-05-16T02:10:04.447Z,13.68
2023-05-16T02:10:14.669Z,13.67
2023-05-16T02:10:25.024Z,13.68
2023-05-16T02:10:35.281Z,13.65
2023-05-16T02:10:45.560Z,13.67
2023-05-16T02:10:55.818Z,13.68
2023-05-16T02:11:06.072Z,13.68
2023-05-16T02:11:16.354Z,13.67
2023-05-16T02:11:26.595Z,13.68
2023-05-16T02:11:36.856Z,13.67
2023-05-16T02:11:47.148Z,13.65
2023-05-16T02:11:57.397Z,13.68
2023-05-16T02:12:07.658Z,13.65
2023-05-16T02:12:17.917Z,13.65
2023-05-16T02:12:28.186Z,13.65